createdAt,value
2022-10-04T00:02:27.849Z,8.45
2022-10-04T00:05:04.156Z,8.40
2022-10-04T00:07:36.176Z,8.38
2022-10-04T00:10:08.880Z,7.90
2022-10-04T00:12:40.807Z,8.13
2022-10-04T00:15:22.039Z,8.35
2022-10-04T00:18:22.043Z,8.35
2022-10-04T00:21:04.166Z,8.68
2022-10-04T00:23:48.311Z,8.73
2022-10-04T00:26:53.658Z,8.40
2022-10-04T00:29:42.125Z,8.65
2022-10-04T00:32:33.511Z,8.85
2022-10-04T00:35:05.744Z,7.90
2022-10-04T00:37:59.006Z,8.17
2022-10-04T00:40:30.787Z,8.30
2022-10-04T00:43:03.111Z,8.40
2022-10-04T00:45:37.250Z,8.27
2022-10-04T00:48:31.220Z,8.93
2022-10-04T00:51:07.957Z,7.80
2022-10-04T00:53:43.295Z,8.40
2022-10-04T00:56:16.259Z,8.40
2022-10-04T00:58:51.390Z,8.43
2022-10-04T01:01:24.777Z,7.93
2022-10-04T01:03:56.623Z,8.32
2022-10-04T01:06:29.387Z,9.10
2022-10-04T01:09:08.059Z,9.80
2022-10-04T01:11:40.659Z,9.30
2022-10-04T01:14:14.606Z,7.95
2022-10-04T01:16:44.688Z,8.63
2022-10-04T01:19:31.906Z,8.87
2022-10-04T01:22:13.312Z,9.20
2022-10-04T01:24:46.879Z,8.63
2022-10-04T01:27:38.568Z,8.07
2022-10-04T01:30:10.994Z,9.70
2022-10-04T01:32:41.432Z,9.20
2022-10-04T01:35:12.929Z,8.88
2022-10-04T01:37:42.846Z,7.95
2022-10-04T01:40:15.172Z,8.73
2022-10-04T01:42:48.835Z,9.82
2022-10-04T01:45:24.161Z,9.48
2022-10-04T01:47:57.452Z,8.20
2022-10-04T01:50:31.813Z,8.50
2022-10-04T01:53:04.264Z,9.40
2022-10-04T01:55:38.099Z,8.02
2022-10-04T01:58:15.680Z,8.48
2022-10-04T02:00:51.522Z,7.90
2022-10-04T02:03:24.966Z,8.02
2022-10-04T02:05:57.269Z,8.63
2022-10-04T02:08:29.439Z,8.70
2022-10-04T02:11:02.643Z,9.13
2022-10-04T02:13:37.153Z,8.50
2022-10-04T02:16:07.357Z,8.00
2022-10-04T02:18:40.256Z,8.57
2022-10-04T02:21:10.572Z,8.43
2022-10-04T02:23:40.508Z,8.43
2022-10-04T02:26:14.180Z,8.55
2022-10-04T02:28:43.820Z,8.85
2022-10-04T02:31:26.499Z,8.70
2022-10-04T02:33:59.556Z,8.70
2022-10-04T02:36:30.840Z,8.80
2022-10-04T02:39:04.387Z,9.23
2022-10-04T02:41:40.416Z,9.00
2022-10-04T02:44:14.986Z,9.23
2022-10-04T02:46:48.639Z,9.20
2022-10-04T02:49:23.209Z,9.70
2022-10-04T02:51:55.201Z,9.60
2022-10-04T02:54:30.713Z,9.70
2022-10-04T02:57:03.556Z,10.00
2022-10-04T02:59:35.485Z,9.50
2022-10-04T03:02:05.553Z,8.90
2022-10-04T03:04:36.920Z,8.65
2022-10-04T03:07:09.515Z,9.10
2022-10-04T03:09:40.178Z,8.82
2022-10-04T03:12:13.830Z,8.90
2022-10-04T03:14:43.509Z,9.82
2022-10-04T03:17:13.228Z,10.00
2022-10-04T03:19:42.898Z,9.30
2022-10-04T03:22:14.669Z,9.90
2022-10-04T03:24:49.163Z,8.93
2022-10-04T03:27:25.036Z,10.15
2022-10-04T03:29:59.054Z,9.57
2022-10-04T03:32:30.481Z,8.98
2022-10-04T03:35:01.435Z,10.02
2022-10-04T03:37:32.679Z,9.77
2022-10-04T03:40:02.866Z,11.50
2022-10-04T03:42:37.345Z,10.00
2022-10-04T03:45:11.101Z,9.65
2022-10-04T03:47:42.457Z,10.20
2022-10-04T03:50:18.719Z,10.10
2022-10-04T03:52:54.020Z,9.50
2022-10-04T03:55:24.458Z,11.40
2022-10-04T03:57:56.656Z,9.73
2022-10-04T04:00:26.252Z,9.77
2022-10-04T04:02:59.316Z,10.30
2022-10-04T04:05:32.105Z,11.07
2022-10-04T04:08:07.237Z,10.38
2022-10-04T04:10:39.800Z,11.10
2022-10-04T04:13:21.066Z,10.05
2022-10-04T04:15:50.719Z,10.40
2022-10-04T04:18:25.849Z,10.47
2022-10-04T04:20:59.428Z,10.45
2022-10-04T04:23:33.177Z,10.52
2022-10-04T04:26:16.895Z,10.45
2022-10-04T04:28:51.808Z,10.65
2022-10-04T04:31:23.837Z,10.00
2022-10-04T04:33:59.310Z,9.50
2022-10-04T04:36:29.986Z,9.98
2022-10-04T04:39:22.608Z,10.35
2022-10-04T04:41:52.342Z,9.95
2022-10-04T04:44:24.826Z,9.25
2022-10-04T04:47:00.411Z,8.98
2022-10-04T04:49:32.614Z,10.00
2022-10-04T04:52:02.467Z,9.48
2022-10-04T04:54:32.043Z,9.45
2022-10-04T04:57:01.624Z,9.40
2022-10-04T04:59:34.591Z,9.00
2022-10-04T05:02:04.261Z,9.00
2022-10-04T05:04:33.849Z,8.80
2022-10-04T05:07:06.371Z,9.57
2022-10-04T05:09:38.523Z,10.50
2022-10-04T05:12:11.605Z,10.82
2022-10-04T05:14:49.030Z,9.90
2022-10-04T05:17:22.923Z,9.63
2022-10-04T05:19:53.649Z,9.37
2022-10-04T05:22:25.479Z,9.05
2022-10-04T05:24:56.584Z,9.15
2022-10-04T05:27:30.373Z,9.05
2022-10-04T05:30:08.126Z,8.60
2022-10-04T05:32:46.372Z,8.00
2022-10-04T05:35:20.570Z,8.77
2022-10-04T05:38:05.295Z,8.00
2022-10-04T05:40:41.696Z,8.35
2022-10-04T05:43:25.421Z,8.20
2022-10-04T05:46:25.358Z,7.70
2022-10-04T05:48:57.172Z,7.63
2022-10-04T05:51:27.831Z,8.23
2022-10-04T05:53:58.266Z,8.00
2022-10-04T05:56:51.771Z,7.30
2022-10-04T05:59:49.849Z,7.87
2022-10-04T06:02:31.358Z,8.60
2022-10-04T06:05:11.906Z,7.97
2022-10-04T06:07:44.765Z,6.70
2022-10-04T06:10:37.840Z,7.20
2022-10-04T06:13:13.086Z,8.27
2022-10-04T06:15:59.667Z,7.50
2022-10-04T06:18:46.718Z,7.30
2022-10-04T06:21:23.444Z,7.75
2022-10-04T06:23:57.773Z,8.73
2022-10-04T06:26:30.327Z,7.10
2022-10-04T06:29:02.648Z,8.40
2022-10-04T06:31:57.380Z,7.85
2022-10-04T06:35:06.774Z,8.00
2022-10-04T06:37:48.171Z,7.40
2022-10-04T06:40:34.337Z,7.00
2022-10-04T06:43:18.251Z,6.47
2022-10-04T06:45:55.931Z,7.17
2022-10-04T06:48:51.265Z,7.18
2022-10-04T06:51:29.562Z,7.25
2022-10-04T06:54:05.673Z,6.45
2022-10-04T06:56:50.114Z,7.05
2022-10-04T06:59:37.141Z,5.50
2022-10-04T07:02:10.681Z,6.10
2022-10-04T07:05:09.438Z,6.90
2022-10-04T07:07:39.346Z,6.03
2022-10-04T07:10:26.848Z,6.50
2022-10-04T07:13:06.836Z,6.15
2022-10-04T07:15:44.651Z,6.70
2022-10-04T07:18:18.621Z,6.90
2022-10-04T07:20:48.991Z,7.00
2022-10-04T07:23:28.681Z,6.57
2022-10-04T07:26:01.611Z,5.80
2022-10-04T07:28:46.413Z,6.72
2022-10-04T07:31:17.829Z,6.70
2022-10-04T07:33:49.902Z,6.60
2022-10-04T07:36:22.997Z,6.80
2022-10-04T07:39:00.249Z,7.00
2022-10-04T07:41:32.522Z,6.65
2022-10-04T07:44:04.779Z,6.88
2022-10-04T07:46:52.813Z,6.20
2022-10-04T07:49:23.962Z,7.10
2022-10-04T07:52:06.215Z,7.07
2022-10-04T07:54:42.034Z,6.90
2022-10-04T07:57:17.400Z,6.57
2022-10-04T07:59:52.773Z,7.00
2022-10-04T08:02:31.645Z,6.43
2022-10-04T08:05:08.032Z,6.43
2022-10-04T08:07:49.685Z,6.50
2022-10-04T08:10:27.100Z,6.50
2022-10-04T08:13:00.939Z,6.70
2022-10-04T08:15:39.346Z,6.50
2022-10-04T08:18:20.675Z,5.95
2022-10-04T08:20:51.764Z,6.77
2022-10-04T08:23:37.026Z,6.95
2022-10-04T08:26:20.131Z,6.50
2022-10-04T08:29:08.564Z,7.60
2022-10-04T08:31:55.857Z,6.40
2022-10-04T08:34:34.646Z,6.40
2022-10-04T08:37:11.890Z,6.25
2022-10-04T08:39:53.225Z,6.65
2022-10-04T08:42:42.041Z,6.70
2022-10-04T08:45:26.920Z,5.88
2022-10-04T08:48:33.005Z,6.70
2022-10-04T08:51:47.409Z,6.28
2022-10-04T08:54:42.650Z,5.57
2022-10-04T08:57:38.147Z,7.05
2022-10-04T09:00:16.589Z,6.82
2022-10-04T09:03:16.722Z,6.55
2022-10-04T09:06:17.860Z,6.20
2022-10-04T09:09:19.761Z,7.03
2022-10-04T09:12:01.067Z,6.47
2022-10-04T09:14:45.831Z,5.55
2022-10-04T09:17:23.169Z,5.78
2022-10-04T09:20:13.926Z,5.68
2022-10-04T09:22:57.088Z,5.65
2022-10-04T09:25:47.396Z,6.00
2022-10-04T09:29:04.934Z,6.20
2022-10-04T09:32:10.440Z,5.30
2022-10-04T09:34:49.845Z,5.20
2022-10-04T09:37:32.985Z,6.47
2022-10-04T09:40:31.985Z,6.32
2022-10-04T09:43:16.333Z,5.50
2022-10-04T09:45:55.226Z,5.25
2022-10-04T09:48:40.623Z,5.07
2022-10-04T09:51:19.855Z,5.00
2022-10-04T09:54:14.982Z,5.30
2022-10-04T09:56:53.345Z,5.20
2022-10-04T09:59:42.478Z,5.20
2022-10-04T10:02:56.424Z,4.93
2022-10-04T10:05:33.523Z,4.90
2022-10-04T10:08:12.207Z,5.05
2022-10-04T10:10:59.424Z,4.82
2022-10-04T10:13:59.523Z,5.00
2022-10-04T10:16:42.010Z,4.20
2022-10-04T10:19:45.286Z,4.55
2022-10-04T10:22:31.112Z,4.95
2022-10-04T10:25:18.774Z,5.00
2022-10-04T10:28:07.934Z,4.50
2022-10-04T10:30:49.872Z,4.30
2022-10-04T10:33:42.542Z,4.67
2022-10-04T10:36:24.492Z,4.28
2022-10-04T10:39:06.106Z,4.47
2022-10-04T10:41:44.873Z,4.43
2022-10-04T10:44:23.575Z,4.65
2022-10-04T10:47:01.663Z,4.73
2022-10-04T10:49:44.353Z,4.78
2022-10-04T10:52:43.517Z,5.30
2022-10-04T10:55:32.365Z,4.53
2022-10-04T10:58:34.085Z,4.78
2022-10-04T11:01:18.808Z,5.18
2022-10-04T11:04:16.512Z,4.68
2022-10-04T11:07:14.111Z,4.68
2022-10-04T11:10:16.293Z,4.72
2022-10-04T11:13:13.883Z,4.13
2022-10-04T11:15:53.586Z,4.38
2022-10-04T11:18:49.681Z,4.60
2022-10-04T11:21:50.653Z,4.55
2022-10-04T11:24:45.032Z,4.80
2022-10-04T11:27:20.634Z,4.30
2022-10-04T11:30:08.625Z,4.57
2022-10-04T11:33:12.977Z,4.00
2022-10-04T11:36:00.342Z,4.22
2022-10-04T11:38:48.839Z,4.18
2022-10-04T11:41:23.254Z,4.50
2022-10-04T11:44:16.423Z,4.30
2022-10-04T11:46:52.441Z,4.50
2022-10-04T11:49:35.589Z,4.85
2022-10-04T11:52:34.346Z,4.13
2022-10-04T11:55:54.386Z,4.10
2022-10-04T11:58:32.793Z,4.10
2022-10-04T12:01:22.673Z,4.00
2022-10-04T12:04:22.226Z,4.23
2022-10-04T12:07:08.355Z,3.75
2022-10-04T12:09:44.040Z,3.63
2022-10-04T12:12:41.001Z,3.80
2022-10-04T12:15:52.045Z,3.85
2022-10-04T12:18:41.864Z,3.95
2022-10-04T12:24:13.138Z,3.58
2022-10-04T12:27:02.875Z,3.80
2022-10-04T12:30:10.547Z,3.67
2022-10-04T12:32:45.512Z,3.67
2022-10-04T12:35:25.276Z,3.38
2022-10-04T12:38:16.339Z,3.90
2022-10-04T12:40:51.388Z,3.35
2022-10-04T12:43:28.104Z,3.30
2022-10-04T12:46:07.783Z,3.40
2022-10-04T12:48:48.278Z,3.63
2022-10-04T12:51:39.479Z,3.60
2022-10-04T12:54:24.024Z,3.80
2022-10-04T12:57:01.884Z,3.28
2022-10-04T12:59:43.934Z,3.47
2022-10-04T13:02:25.556Z,3.60
2022-10-04T13:04:57.561Z,3.50
2022-10-04T13:07:51.796Z,3.70
2022-10-04T13:10:33.211Z,3.30
2022-10-04T13:13:30.048Z,3.47
2022-10-04T13:19:08.611Z,3.53
2022-10-04T13:22:04.874Z,3.55
2022-10-04T13:24:55.150Z,3.67
2022-10-04T13:27:32.473Z,3.30
2022-10-04T13:30:04.803Z,3.55
2022-10-04T13:32:39.259Z,3.13
2022-10-04T13:35:20.497Z,3.45
2022-10-04T13:38:02.486Z,3.70
2022-10-04T13:40:47.330Z,3.38
2022-10-04T13:43:36.616Z,3.72
2022-10-04T13:46:14.663Z,3.67
2022-10-04T13:49:07.543Z,3.60
2022-10-04T13:52:10.068Z,3.30
2022-10-04T13:54:56.048Z,3.80
2022-10-04T13:57:30.149Z,3.72
2022-10-04T14:00:07.653Z,4.63
2022-10-04T14:03:04.885Z,4.45
2022-10-04T14:06:00.933Z,4.07
2022-10-04T14:08:59.193Z,3.70
2022-10-04T14:12:09.349Z,3.60
2022-10-04T14:15:17.576Z,3.33
2022-10-04T14:18:12.307Z,4.20
2022-10-04T14:21:19.151Z,4.30
2022-10-04T14:24:12.316Z,4.10
2022-10-04T14:27:17.272Z,3.90
2022-10-04T14:30:12.781Z,3.80
2022-10-04T14:33:01.448Z,3.88
2022-10-04T14:35:35.603Z,4.40
2022-10-04T14:38:41.734Z,4.25
2022-10-04T14:41:39.112Z,3.80
2022-10-04T14:44:28.844Z,4.00
2022-10-04T14:47:06.435Z,4.30
2022-10-04T14:49:51.707Z,4.60
2022-10-04T14:52:35.019Z,4.82
2022-10-04T14:55:15.295Z,4.50
2022-10-04T14:57:58.299Z,4.63
2022-10-04T15:00:31.356Z,4.45
2022-10-04T15:03:20.263Z,4.00
2022-10-04T15:06:12.869Z,4.37
2022-10-04T15:09:09.658Z,4.97
2022-10-04T15:12:21.570Z,5.22
2022-10-04T15:14:46.464Z,4.68
2022-10-04T15:17:28.622Z,4.30
2022-10-04T15:20:08.234Z,4.60
2022-10-04T15:22:43.886Z,4.75
2022-10-04T15:25:43.760Z,4.30
2022-10-04T15:28:29.421Z,4.53
2022-10-04T15:31:04.661Z,4.07
2022-10-04T15:33:41.806Z,5.30
2022-10-04T15:36:28.664Z,5.00
2022-10-04T15:39:03.220Z,5.30
2022-10-04T15:41:41.651Z,5.15
2022-10-04T15:44:31.581Z,4.68
2022-10-04T15:47:12.498Z,5.20
2022-10-04T15:49:54.201Z,4.57
2022-10-04T15:52:45.486Z,4.20
2022-10-04T15:55:28.477Z,4.60
2022-10-04T15:58:19.873Z,4.47
2022-10-04T16:01:01.399Z,4.60
2022-10-04T16:03:40.820Z,4.80
2022-10-04T16:06:13.938Z,5.00
2022-10-04T16:08:59.205Z,4.97
2022-10-04T16:11:37.141Z,5.05
2022-10-04T16:14:23.380Z,5.07
2022-10-04T16:17:05.708Z,4.95
2022-10-04T16:19:55.286Z,5.07
2022-10-04T16:22:31.242Z,5.80
2022-10-04T16:25:01.979Z,5.63
2022-10-04T16:27:48.527Z,5.07
2022-10-04T16:30:28.382Z,5.82
2022-10-04T16:33:27.483Z,5.63
2022-10-04T16:36:15.005Z,5.65
2022-10-04T16:39:10.279Z,6.15
2022-10-04T16:41:44.734Z,6.10
2022-10-04T16:44:32.100Z,5.50
2022-10-04T16:47:07.043Z,5.65
2022-10-04T16:49:41.825Z,5.20
2022-10-04T16:52:23.445Z,6.07
2022-10-04T16:55:06.941Z,4.90
2022-10-04T16:57:36.504Z,5.75
2022-10-04T17:00:35.408Z,5.63
2022-10-04T17:03:19.939Z,5.72
2022-10-04T17:06:05.069Z,6.83
2022-10-04T17:08:50.615Z,6.00
2022-10-04T17:11:35.780Z,5.93
2022-10-04T17:14:09.874Z,6.10
2022-10-04T17:16:41.057Z,5.28
2022-10-04T17:19:24.855Z,5.45
2022-10-04T17:22:05.848Z,6.00
2022-10-04T17:24:43.871Z,5.75
2022-10-04T17:27:29.853Z,5.90
2022-10-04T17:30:07.872Z,6.57
2022-10-04T17:32:47.410Z,6.05
2022-10-04T17:35:59.289Z,6.10
2022-10-04T17:38:35.201Z,6.55
2022-10-04T17:41:11.296Z,5.90
2022-10-04T17:43:46.404Z,5.80
2022-10-04T17:46:20.397Z,6.20
2022-10-04T17:49:05.191Z,5.75
2022-10-04T17:52:12.906Z,6.23
2022-10-04T17:54:59.855Z,6.53
2022-10-04T17:57:34.182Z,6.50
2022-10-04T18:00:11.777Z,5.67
2022-10-04T18:03:09.412Z,5.70
2022-10-04T18:05:50.631Z,6.57
2022-10-04T18:08:27.268Z,6.50
2022-10-04T18:11:00.200Z,6.77
2022-10-04T18:13:34.585Z,6.75
2022-10-04T18:16:10.125Z,7.72
2022-10-04T18:18:43.750Z,7.97
2022-10-04T18:21:27.305Z,7.72
2022-10-04T18:24:05.278Z,6.80
2022-10-04T18:26:36.081Z,8.55
2022-10-04T18:29:09.390Z,7.50
2022-10-04T18:31:40.682Z,8.23
2022-10-04T18:34:22.059Z,8.48
2022-10-04T18:37:06.500Z,7.50
2022-10-04T18:39:53.126Z,6.88
2022-10-04T18:42:30.598Z,8.30
2022-10-04T18:45:02.571Z,7.90
2022-10-04T18:47:37.069Z,9.40
2022-10-04T18:50:18.900Z,10.43
2022-10-04T18:52:57.861Z,10.80
2022-10-04T18:55:36.854Z,10.30
2022-10-04T18:58:25.178Z,10.40
2022-10-04T19:01:12.263Z,10.65
2022-10-04T19:03:47.052Z,10.20
2022-10-04T19:06:19.697Z,10.20
2022-10-04T19:08:55.943Z,10.40
2022-10-04T19:11:32.232Z,9.30
2022-10-04T19:14:08.424Z,9.27
2022-10-04T19:16:44.707Z,9.30
2022-10-04T19:19:34.355Z,7.60
2022-10-04T19:22:11.107Z,8.38
2022-10-04T19:24:58.876Z,8.82
2022-10-04T19:27:36.438Z,8.60
2022-10-04T19:30:15.456Z,8.15
2022-10-04T19:33:04.642Z,9.18
2022-10-04T19:35:48.637Z,9.50
2022-10-04T19:38:30.207Z,10.60
2022-10-04T19:41:06.601Z,10.30
2022-10-04T19:43:44.645Z,10.27
2022-10-04T19:46:19.992Z,10.25
2022-10-04T19:48:52.420Z,11.05
2022-10-04T19:51:28.476Z,9.73
2022-10-04T19:54:03.869Z,10.32
2022-10-04T19:56:35.867Z,8.80
2022-10-04T19:59:10.385Z,10.13
2022-10-04T20:01:39.912Z,9.57
2022-10-04T20:04:27.108Z,9.10
2022-10-04T20:06:58.618Z,9.40
2022-10-04T20:09:35.399Z,9.27
2022-10-04T20:12:05.301Z,10.38
2022-10-04T20:15:12.972Z,9.52
2022-10-04T20:17:46.206Z,9.02
2022-10-04T20:20:18.780Z,9.18
2022-10-04T20:22:59.765Z,9.32
2022-10-04T20:26:02.199Z,9.80
2022-10-04T20:28:43.777Z,9.30
2022-10-04T20:31:15.013Z,9.40
2022-10-04T20:33:51.305Z,8.43
2022-10-04T20:36:54.549Z,9.18
2022-10-04T20:40:03.089Z,9.77
2022-10-04T20:42:34.854Z,9.32
2022-10-04T20:45:08.213Z,9.27
2022-10-04T20:47:57.556Z,10.05
2022-10-04T20:50:50.905Z,9.80
2022-10-04T20:53:22.836Z,10.60
2022-10-04T20:55:57.168Z,10.10
2022-10-04T20:58:31.587Z,10.20
2022-10-04T21:01:10.965Z,9.33
2022-10-04T21:03:40.596Z,8.82
2022-10-04T21:06:14.728Z,8.50
2022-10-04T21:08:44.255Z,9.30
2022-10-04T21:11:20.817Z,8.93
2022-10-04T21:13:55.424Z,8.13
2022-10-04T21:16:53.491Z,8.75
2022-10-04T21:19:48.730Z,9.77
2022-10-04T21:22:42.427Z,9.40
2022-10-04T21:25:33.890Z,8.82
2022-10-04T21:28:32.545Z,9.20
2022-10-04T21:31:06.403Z,8.67
2022-10-04T21:33:37.008Z,8.60
2022-10-04T21:36:07.573Z,8.07
2022-10-04T21:38:39.699Z,8.13
2022-10-04T21:41:09.523Z,8.20
2022-10-04T21:43:40.078Z,7.68
2022-10-04T21:46:09.831Z,7.72
2022-10-04T21:48:39.406Z,7.72
2022-10-04T21:51:09.049Z,7.60
2022-10-04T21:53:41.194Z,7.50
2022-10-04T21:56:10.742Z,7.50
2022-10-04T21:58:40.313Z,7.05
2022-10-04T22:01:10.079Z,7.30
2022-10-04T22:03:39.659Z,7.00
2022-10-04T22:06:09.330Z,7.60
2022-10-04T22:08:42.972Z,7.10
2022-10-04T22:11:12.685Z,7.20
2022-10-04T22:13:42.614Z,7.40
2022-10-04T22:16:12.200Z,7.07
2022-10-04T22:18:41.856Z,8.50
2022-10-04T22:21:11.492Z,7.20
2022-10-04T22:23:45.555Z,7.07
2022-10-04T22:26:16.377Z,7.18
2022-10-04T22:28:47.781Z,7.70
2022-10-04T22:31:19.286Z,7.88
2022-10-04T22:33:50.561Z,6.70
2022-10-04T22:36:22.686Z,6.70
2022-10-04T22:38:59.928Z,7.47
2022-10-04T22:41:31.169Z,6.82
2022-10-04T22:44:02.732Z,5.70
2022-10-04T22:46:36.360Z,7.15
2022-10-04T22:49:11.740Z,7.63
2022-10-04T22:51:42.809Z,6.68
2022-10-04T22:54:17.346Z,7.13
2022-10-04T22:56:47.488Z,6.57
2022-10-04T22:59:19.780Z,7.00
2022-10-04T23:01:50.483Z,7.20
2022-10-04T23:04:24.879Z,6.45
2022-10-04T23:06:55.262Z,6.87
2022-10-04T23:09:27.343Z,7.10
2022-10-04T23:11:56.883Z,6.53
2022-10-04T23:14:26.521Z,7.75
2022-10-04T23:16:56.139Z,7.70
2022-10-04T23:19:25.708Z,7.60
2022-10-04T23:21:55.312Z,7.15
2022-10-04T23:24:27.429Z,7.32
2022-10-04T23:26:58.379Z,6.82
2022-10-04T23:29:29.697Z,7.22
2022-10-04T23:31:59.767Z,7.60
2022-10-04T23:34:31.911Z,7.35
2022-10-04T23:37:01.720Z,7.60
2022-10-04T23:39:36.116Z,6.97
2022-10-04T23:42:16.110Z,6.93
2022-10-04T23:44:45.786Z,7.10
2022-10-04T23:47:18.081Z,6.95
2022-10-04T23:49:48.413Z,7.85
2022-10-04T23:52:22.979Z,7.30
2022-10-04T23:54:56.693Z,7.72
2022-10-04T23:57:27.989Z,7.53
2022-10-04T23:59:57.568Z,6.80
